الصفحة الرئيسية
METAR-TAF:

METAR-TAF

مطار :

Tarawa, كيريباس

دائرة عرض: 01-21N, خط طول: 172-55E, ارتفاع: 2 متر

مراقبة الطقس الحالي

تاريخ ووقت الإصدار 1ساعة و 3 دقيقة قبل الساعة 05:00UTC
ريح 2 عقدةمن اتجاهات متغيرة
درجة الحرارة 30°درجة مئوية
الرطوبة 75%
ضغط 1006 hPa
الرؤية 10 كم أو أكثر
غيوم قليلة على ارتفاع 2000 قدم
غيوم مفككة على ارتفاع 30000 قدم

METAR: NGTA 060500Z VRB02KT 9999 FEW020 BKN300 30/25 Q1006

زمن: 20:03 (06:03 UTC)

توقعات

تاريخ ووقت الإصدار 50 دقيقة قبل الساعة 05:13UTC
التوقعات صالحة من06 الساعة 06 UTC إلى 07 الساعة 06 UTC
ريح 7 عقدة من الشرق
الرؤية 10 كم أو أكثر
غيوم متفرقة على ارتفاع 2000 قدم
غيوم مفككة على ارتفاع 10000 قدم

TAF: NGTA 060513Z 0606/0706 10007KT 9999 SCT020 BKN100

أرصاد الطقس والتوقعات من أكثر من 4000 مطار (تقارير الطقس للمطار METAR والتنبؤ بالطقس بالمطارTAF).

المحطات المتاحة هي النقط الصفراء والحمراء على الخريطة.

حرك المؤشر فوق النقطة لمعرفة اسم المحطة.

ثم انقر لمعرفة أرصاد وتوقعات الطقس.

لتغيير الخارطة: اضغط على الأزرار الخضراء مع رمز الصليب الأسود للتكبير. على الزر الأخضر مع شرطة للتصغير، أو على الأسهم الخضراء للخرائط المجاورة.


METAR-TAF: